Latest Weather Observations for Gunnedah Airport

IDN60801

Issued at 12:35 pm EDT Wednesday 26 November 2014 (issued every 30 minutes, with the page automatically refreshed every 10 minutes)

About weather observations | Map of weather stations | Latest weather observations for NSW | Other Formats
Station Details ID: 055202 Name: GUNNEDAH AIRPORT AWS Lat: -30.95 Lon: 150.25 Height: 262.57 m
Data from the previous 72 hours. | See also: Recent months at Gunnedah Airport
Date/Time
EDT
Temp
°C
App
Temp
°C
Dew
Point
Rel
Hum
%
Delta-T
°C
Wind Press
QNH
hPa
Press
MSL
hPa
Rain
since 9 am
mm
Dir
 
Spd
km/h
Gust
km/h
Spd
kts
Gust
kts
26/12:30pm 28.6 26.9 14.8 43 8.5 W 17 28 9 15 1016.3 1015.2 0.0
26/12:00pm 28.3 26.1 14.5 43 8.4 WNW 19 26 10 14 1016.6 1015.5 0.0
26/11:30am 28.3 28.1 15.6 46 7.9 WSW 11 20 6 11 1016.9 1015.8 0.0
26/11:00am 26.9 26.9 15.3 49 7.1 S 9 15 5 8 1017.0 1015.9 0.0
26/10:30am 26.4 27.2 15.8 52 6.5 S 6 11 3 6 1017.0 1015.9 0.0
26/10:00am 25.3 25.4 15.6 55 5.9 SSE 9 15 5 8 1017.0 1015.9 0.0
26/09:30am 24.5 24.2 15.4 57 5.5 SE 11 17 6 9 1017.0 1015.9 0.0
26/09:00am 23.8 22.8 15.6 60 5.0 SE 15 20 8 11 1016.9 1015.8 0.0
26/08:30am 22.4 21.0 15.5 65 4.2 SSE 17 20 9 11 1017.0 1015.9 0.0
26/08:00am 21.6 20.6 15.7 69 3.6 SSE 15 20 8 11 1016.9 1015.8 0.0
26/07:30am 20.0 18.1 15.2 74 2.9 SSE 19 22 10 12 1016.7 1015.6 0.0
26/07:00am 19.7 17.8 15.1 75 2.7 SE 19 24 10 13 1016.6 1015.5 0.0
26/06:30am 19.1 17.5 15.0 77 2.4 SE 17 20 9 11 1016.6 1015.5 0.0
26/06:00am 18.7 16.6 14.8 78 2.3 SE 19 22 10 12 1016.3 1015.2 0.0
26/05:30am 18.8 17.1 14.7 77 2.4 SE 17 20 9 11 1016.1 1015.0 0.0
26/05:00am 19.2 17.9 14.7 75 2.6 SE 15 19 8 10 1016.0 1014.9 0.0
26/04:30am 19.1 17.9 15.0 77 2.4 SSE 15 17 8 9 1015.6 1014.5 0.0
26/04:00am 18.2 16.8 13.5 74 2.7 SSE 13 15 7 8 1015.6 1014.5 0.0
26/03:30am 18.2 17.1 12.0 67 3.5 SE 9 11 5 6 1015.5 1014.4 0.0
26/03:00am 16.8 15.4 9.5 62 3.9 ESE 7 9 4 5 1015.6 1014.5 0.0
26/02:30am 17.6 17.3 8.5 55 4.7 CALM 0 0 0 0 1015.7 1014.6 0.0
26/02:00am 17.9 16.5 9.5 58 4.5 ENE 7 9 4 5 1015.9 1014.8 0.0
26/01:30am 17.9 15.4 8.2 53 5.0 E 11 11 6 6 1016.0 1014.9 0.0
26/01:00am 18.3 14.7 6.8 47 5.8 E 15 15 8 8 1016.2 1015.1 0.0
26/12:30am 18.4 17.0 9.5 56 4.7 ESE 7 9 4 5 1016.6 1015.5 0.0
26/12:00am 18.8 17.0 7.3 47 5.9 NE 6 7 3 4 1016.7 1015.6 0.0
 
Date/Time
EDT
Temp
°C
App
Temp
°C
Dew
Point
Rel
Hum
%
Delta-T
°C
Wind Press
QNH
hPa
Press
MSL
hPa
Rain
since 9 am
mm
Dir
 
Spd
km/h
Gust
km/h
Spd
kts
Gust
kts
25/11:30pm 18.9 17.4 8.6 51 5.4 ENE 6 11 3 6 1016.7 1015.6 0.0
25/11:00pm 21.0 18.0 4.1 33 8.3 S 9 11 5 6 1016.8 1015.7 0.0
25/10:30pm 22.3 18.0 0.8 24 10.0 SSE 13 17 7 9 1016.7 1015.6 0.0
25/10:00pm 22.4 18.3 2.0 26 9.7 S 13 20 7 11 1016.6 1015.5 0.0
25/09:30pm 23.0 18.6 2.5 26 9.9 SSE 15 19 8 10 1016.5 1015.4 0.0
25/09:00pm 23.2 19.5 4.2 29 9.4 SSE 13 19 7 10 1016.2 1015.1 0.0
25/08:30pm 23.6 20.5 7.3 35 8.6 S 13 17 7 9 1015.8 1014.7 0.0
25/08:00pm 24.3 20.8 8.7 37 8.5 S 17 20 9 11 1015.6 1014.5 0.0
25/07:30pm 24.9 22.6 10.4 40 8.1 SSW 13 15 7 8 1015.3 1014.2 0.0
25/07:00pm 25.9 23.2 11.6 40 8.2 SSW 17 20 9 11 1015.1 1014.0 0.0
25/06:30pm 27.0 25.0 12.6 41 8.5 SSW 15 19 8 10 1014.7 1013.5 0.0
25/06:00pm 27.9 26.5 13.4 40 8.7 SW 13 17 7 9 1014.4 1013.2 0.0
25/05:30pm 28.1 26.8 13.6 41 8.7 SW 13 19 7 10 1014.5 1013.3 0.0
25/05:00pm 28.7 27.2 14.1 40 8.9 SW 15 20 8 11 1014.3 1013.1 0.0
25/04:30pm 28.6 27.3 14.8 43 8.5 SSW 15 28 8 15 1014.7 1013.5 0.0
25/04:00pm 28.6 27.9 15.5 45 8.1 W 13 24 7 13 1014.9 1013.7 0.0
25/03:30pm 27.8 27.0 15.1 46 7.8 SW 13 20 7 11 1015.0 1013.9 0.0
25/03:00pm 28.1 26.5 15.1 45 8.0 WSW 17 24 9 13 1014.9 1013.7 0.0
25/02:30pm 28.0 27.2 16.0 48 7.5 WSW 15 22 8 12 1015.0 1013.9 0.0
25/02:00pm 27.5 27.0 15.8 48 7.2 WSW 13 19 7 10 1015.3 1014.2 0.0
25/01:30pm 26.9 27.5 15.9 51 6.8 S 7 15 4 8 1015.5 1014.4 0.0
25/01:00pm 27.0 28.0 16.3 52 6.7 S 6 11 3 6 1015.7 1014.6 0.0
25/12:30pm 26.0 27.0 16.3 55 6.0 SSW 6 11 3 6 1015.8 1014.7 0.0
25/12:00pm 26.4 26.0 16.3 53 6.3 S 13 19 7 10 1016.0 1014.9 0.0
25/11:30am 25.8 27.1 17.2 59 5.4 SSW 6 13 3 7 1016.0 1014.9 0.0
25/11:00am 25.2 24.5 15.5 55 5.9 S 13 17 7 9 1016.0 1014.9 0.0
25/10:30am 24.8 24.8 16.2 58 5.3 WSW 11 17 6 9 1015.7 1014.6 0.0
25/10:00am 24.2 25.7 17.7 67 4.1 SW 6 11 3 6 1015.8 1014.7 0.0
25/09:30am 23.4 25.3 18.9 76 2.9 SW 7 11 4 6 1015.4 1014.3 0.0
25/09:00am 22.8 26.2 19.4 81 2.2 CALM 0 0 0 0 1015.1 1014.0 2.6
25/08:30am 22.5 25.5 18.5 78 2.5 CALM 0 0 0 0 1014.9 1013.7 2.4
25/08:00am 22.1 25.2 18.7 81 2.2 CALM 0 0 0 0 1014.9 1013.7 2.4
25/07:30am 21.9 24.8 19.1 84 1.8 S 2 7 1 4 1014.6 1013.4 2.2
25/07:00am 21.7 22.6 18.3 81 2.1 SW 11 15 6 8 1014.3 1013.1 2.2
25/06:30am 22.3 23.1 18.1 77 2.6 WSW 11 17 6 9 1014.4 1013.2 2.0
25/06:00am 22.0 25.6 19.7 87 1.5 CALM 0 0 0 0 1013.9 1012.8 2.0
25/05:30am 21.9 25.6 20.0 89 1.2 CALM 0 0 0 0 1013.3 1012.2 2.0
25/05:00am 22.0 25.8 20.1 89 1.2 CALM 0 0 0 0 1012.8 1011.7 2.0
25/04:30am 21.9 25.2 20.0 89 1.2 SSW 2 6 1 3 1012.6 1011.5 2.0
25/04:00am 21.6 24.0 19.7 89 1.2 NNW 6 9 3 5 1012.4 1011.3 2.0
25/03:30am 21.8 24.3 19.9 89 1.2 ENE 6 11 3 6 1012.2 1011.1 2.0
25/03:00am 21.8 25.6 20.1 90 1.1 CALM 0 0 0 0 1012.4 1011.3 2.0
25/02:30am 21.8 25.3 19.5 87 1.5 CALM 0 0 0 0 1012.8 1011.7 2.0
25/02:00am 22.2 26.1 20.3 89 1.2 CALM 0 0 0 0 1013.1 1012.0 2.0
25/01:30am 22.1 25.9 20.2 89 1.2 CALM 0 0 0 0 1013.2 1012.1 2.0
25/01:00am 22.3 24.6 19.8 86 1.6 NNW 7 11 4 6 1013.4 1012.3 2.0
25/12:30am 22.3 24.5 19.7 85 1.7 NNW 7 11 4 6 1013.7 1012.6 2.0
25/12:00am 22.8 24.2 19.6 82 2.1 N 11 15 6 8 1013.7 1012.6 2.0
 
Date/Time
EDT
Temp
°C
App
Temp
°C
Dew
Point
Rel
Hum
%
Delta-T
°C
Wind Press
QNH
hPa
Press
MSL
hPa
Rain
since 9 am
mm
Dir
 
Spd
km/h
Gust
km/h
Spd
kts
Gust
kts
24/11:30pm 23.3 24.4 18.8 76 2.9 WNW 11 17 6 9 1013.4 1012.3 1.8
24/11:00pm 22.9 22.6 19.1 79 2.4 N 19 22 10 12 1013.3 1012.2 1.8
24/10:30pm 22.4 21.4 19.6 84 1.8 SSW 24 33 13 18 1011.7 1010.6 1.8
24/10:00pm 22.2 24.3 19.4 84 1.8 SE 7 11 4 6 1013.1 1012.0 1.4
24/09:30pm 22.6 24.2 19.2 81 2.2 NNW 9 13 5 7 1013.2 1012.1 1.2
24/09:00pm 23.0 23.6 18.7 77 2.7 WNW 13 20 7 11 1013.1 1012.0 0.0
24/08:30pm 25.5 24.3 18.4 65 4.5 NW 22 30 12 16 1013.0 1011.9 0.0
24/08:23pm 25.6 25.3 18.3 64 4.7 NW 17 28 9 15 1012.6 1011.5 0.0
24/08:00pm 27.7 24.1 16.3 49 7.1 W 30 43 16 23 1010.6 1009.4 0.0
24/07:32pm 26.6 23.3 17.1 56 6.0 WSW 30 50 16 27 1009.2 1008.1 0.0
24/07:30pm 26.6 23.3 17.1 56 6.0 WSW 30 41 16 22 1009.2 1008.1 0.0
24/07:00pm 27.3 22.8 16.3 51 6.9 WSW 35 52 19 28 1009.5 1008.4 0.0
24/06:42pm 28.2 24.8 15.8 47 7.7 W 28 50 15 27 1009.6 1008.5 0.0
24/06:30pm 27.7 25.0 15.7 48 7.4 WSW 24 30 13 16 1008.1 1006.9 0.0
24/06:04pm 28.4 22.7 15.3 45 8.1 W 39 57 21 31 1009.2 1008.1 0.0
24/06:00pm 29.0 23.7 15.2 43 8.5 WSW 37 54 20 29 1009.5 1008.4 0.0
24/05:44pm 29.2 22.7 15.0 42 8.7 W 43 61 23 33 1008.4 1007.3 0.0
24/05:39pm 31.1 22.4 12.5 32 11.1 W 50 61 27 33 1008.3 1007.2 0.0
24/05:38pm 33.5 27.3 12.5 28 12.7 NW 37 57 20 31 1008.1 1006.9 0.0
24/05:30pm 36.4 30.3 11.9 23 14.8 NW 35 48 19 26 1007.2 1006.0 0.0
24/05:06pm 37.4 32.0 12.1 22 15.4 NNW 32 50 17 27 1006.6 1005.4 0.0
24/05:00pm 37.7 32.5 11.6 21 15.8 NNW 30 43 16 23 1006.6 1005.4 0.0
24/04:32pm 37.1 31.8 11.1 21 15.6 NW 30 48 16 26 1006.9 1005.7 0.0
24/04:30pm 37.3 32.4 11.3 21 15.6 NW 28 39 15 21 1006.9 1005.7 0.0
24/04:09pm 39.0 33.5 12.0 20 16.5 NNW 32 50 17 27 1007.1 1005.9 0.0
24/04:00pm 37.4 31.8 11.4 21 15.7 NW 32 48 17 26 1007.3 1006.1 0.0
24/03:33pm 38.4 32.8 12.2 21 16.0 NW 33 52 18 28 1007.6 1006.4 0.0
24/03:30pm 38.2 32.3 11.3 20 16.2 NW 33 48 18 26 1007.8 1006.6 0.0
24/03:00pm 38.3 31.5 12.1 21 16.0 NNW 39 57 21 31 1008.4 1007.3 0.0
24/02:32pm 39.2 32.9 13.6 22 16.0 NNW 39 57 21 31 1009.0 1007.9 0.0
24/02:30pm 38.5 31.9 13.7 23 15.5 NNW 41 57 22 31 1008.9 1007.8 0.0
24/02:11pm 39.4 33.5 13.7 21 16.1 NW 37 56 20 30 1009.3 1008.2 0.0
24/02:00pm 38.6 32.8 13.8 23 15.5 NW 37 54 20 29 1009.6 1008.5 0.0
24/01:36pm 38.3 31.9 14.2 24 15.2 NW 41 59 22 32 1009.9 1008.8 0.0
24/01:30pm 38.1 31.6 14.0 24 15.1 NW 41 56 22 30 1010.0 1008.9 0.0
24/01:16pm 37.8 31.0 14.4 25 14.7 WNW 43 52 23 28 1010.4 1009.2 0.0
24/01:00pm 38.7 34.1 14.5 24 15.3 NNW 32 50 17 27 1010.5 1009.3 0.0
24/12:57pm 38.2 33.6 14.7 24 14.9 NW 32 50 17 27 1010.6 1009.4 0.0
24/12:30pm 38.6 33.5 13.8 23 15.5 NNW 33 48 18 26 1010.7 1009.5 0.0
24/12:00pm 38.4 34.7 14.9 25 14.9 NW 28 41 15 22 1011.3 1010.1 0.0
24/11:30am 36.8 35.5 14.7 26 13.9 NNW 15 26 8 14 1011.8 1010.7 0.0
24/11:00am 35.1 33.3 14.4 29 12.9 NNW 17 24 9 13 1012.5 1011.4 0.0
24/10:30am 33.8 33.3 14.8 32 11.9 N 11 17 6 9 1012.8 1011.7 0.0
24/10:00am 32.0 31.1 13.7 33 11.2 NE 11 17 6 9 1013.0 1011.9 0.0
24/09:30am 30.2 30.3 15.5 41 9.2 E 9 15 5 8 1013.3 1012.2 0.0
24/09:00am 28.4 28.3 16.0 47 7.7 SE 11 17 6 9 1013.7 1012.6 6.0
24/08:30am 27.1 27.9 16.4 52 6.7 ESE 7 15 4 8 1013.8 1012.7 6.0
24/08:00am 25.8 25.6 16.6 56 5.7 SSE 13 19 7 10 1012.9 1011.8 6.0
24/07:30am 25.4 25.0 17.1 60 5.2 SE 15 17 8 9 1012.6 1011.5 6.0
24/07:00am 25.0 24.9 17.0 61 5.0 W 13 19 7 10 1013.0 1011.9 6.0
24/06:30am 24.3 24.7 16.3 61 4.9 N 9 17 5 9 1013.1 1012.0 6.0
24/06:00am 23.9 23.7 16.7 64 4.5 NNW 13 19 7 10 1013.6 1012.5 6.0
24/05:30am 25.9 24.3 15.9 54 6.2 N 19 28 10 15 1013.3 1012.2 6.0
24/05:00am 23.7 24.3 17.7 69 3.8 W 11 17 6 9 1013.3 1012.2 6.0
24/04:30am 23.6 23.0 17.6 69 3.8 N 17 22 9 12 1013.2 1012.1 5.8
24/04:00am 23.9 24.7 17.4 67 4.1 N 9 9 5 5 1013.3 1012.2 5.6
24/03:30am 24.7 25.6 16.7 61 5.0 W 7 13 4 7 1014.1 1013.0 5.6
24/03:00am 25.2 25.8 15.8 56 5.8 ENE 7 15 4 8 1013.8 1012.7 5.6
24/02:30am 23.4 24.0 17.8 71 3.5 SSW 11 15 6 8 1014.1 1013.0 5.6
24/02:00am 24.0 24.2 16.8 64 4.5 W 11 15 6 8 1014.5 1013.3 5.6
24/01:30am 26.4 26.1 14.5 48 7.2 W 9 13 5 7 1014.6 1013.4 4.8
24/01:00am 27.4 27.2 13.7 43 8.2 SSW 7 13 4 7 1013.7 1012.6 4.8
24/12:30am 28.5 25.3 12.0 36 9.7 N 20 26 11 14 1013.3 1012.2 4.8
24/12:09am 28.4 22.5 12.3 37 9.5 NE 35 54 19 29 1012.2 1011.1 4.8
24/12:00am 28.5 21.5 12.4 37 9.5 NE 41 56 22 30 1012.0 1010.9 4.8
 
Date/Time
EDT
Temp
°C
App
Temp
°C
Dew
Point
Rel
Hum
%
Delta-T
°C
Wind Press
QNH
hPa
Press
MSL
hPa
Rain
since 9 am
mm
Dir
 
Spd
km/h
Gust
km/h
Spd
kts
Gust
kts
23/11:30pm 27.3 19.8 14.0 44 8.0 NNE 46 61 25 33 1012.7 1011.6 4.8
23/11:20pm 27.0 23.0 14.1 45 7.8 N 28 46 15 25 1013.7 1012.6 4.8
23/11:00pm 27.3 24.8 14.0 44 8.0 NE 20 28 11 15 1014.3 1013.1 4.8
23/10:30pm 27.4 24.9 14.1 44 8.0 NNE 20 30 11 16 1015.9 1014.8 4.8
23/10:00pm 28.1 25.3 14.3 42 8.4 ENE 22 28 12 15 1014.7 1013.5 4.6
23/09:30pm 26.5 19.8 15.2 49 6.9 ENE 44 63 24 34 1013.3 1012.2 4.6
23/09:21pm 27.8 23.4 15.1 46 7.8 NE 32 50 17 27 1015.2 1014.1 3.8
23/09:19pm 27.1 23.1 15.1 47 7.3 NE 30 33 16 18 1015.7 1014.6 3.8
23/09:11pm 28.1 21.8 13.6 41 8.7 N 39 48 21 26 1015.4 1014.3 3.6
23/09:00pm 30.2 22.1 12.1 32 10.7 NE 46 70 25 38 1013.4 1012.3 3.4
23/08:57pm 32.3 23.9 10.9 27 12.5 ENE 46 70 25 38 1013.0 1011.9 3.4
23/08:47pm 30.5 24.1 11.9 31 11.0 ENE 37 54 20 29 1012.6 1011.5 3.4
23/08:30pm 29.7 24.6 13.0 35 10.0 SSW 32 54 17 29 1011.2 1010.0 3.4
23/08:16pm 31.5 26.1 12.3 31 11.5 SSW 32 56 17 30 1011.6 1010.4 3.4
23/08:00pm 27.5 22.7 14.5 45 7.9 S 33 44 18 24 1010.7 1009.5 3.4
23/07:54pm 28.0 22.2 12.8 39 9.0 S 35 43 19 23 1010.9 1009.7 3.0
23/07:41pm 33.5 26.0 9.5 23 13.8 WSW 39 57 21 31 1011.2 1010.0 3.0
23/07:30pm 34.9 26.2 7.9 19 15.3 SW 43 59 23 32 1011.1 1009.9 3.0
23/07:29pm 35.2 26.6 8.1 19 15.4 SW 43 59 23 32 1011.0 1009.8 3.0
23/07:00pm 35.2 30.6 8.1 19 15.4 SSW 22 35 12 19 1010.0 1008.9 3.0
23/06:30pm 34.9 31.2 7.9 19 15.3 SSW 17 20 9 11 1009.5 1008.4 3.0
23/06:00pm 34.7 28.6 8.4 20 15.0 SW 30 39 16 21 1009.5 1008.4 3.0
23/05:31pm 34.9 28.7 9.3 21 14.8 SW 32 59 17 32 1009.7 1008.6 3.0
23/05:30pm 35.0 29.2 9.4 21 14.8 SW 30 43 16 23 1009.7 1008.6 3.0
23/05:28pm 35.2 30.0 10.3 22 14.6 SW 28 43 15 23 1009.7 1008.6 3.0
23/05:00pm 37.7 35.5 10.9 20 16.1 N 13 15 7 8 1009.1 1008.0 3.0
23/04:30pm 38.2 35.4 11.3 20 16.2 N 17 33 9 18 1009.2 1008.1 3.0
23/04:00pm 39.4 35.9 12.3 20 16.7 N 22 30 12 16 1009.6 1008.5 3.0
23/03:30pm 36.7 33.4 11.5 22 15.2 ENE 20 28 11 15 1009.9 1008.8 3.0
23/03:02pm 32.3 27.9 13.0 31 11.7 NNE 28 43 15 23 1011.1 1009.9 1.4
23/03:00pm 37.3 33.6 12.7 23 15.1 NNE 24 33 13 18 1010.8 1009.6 0.0
23/02:30pm 40.0 35.8 7.4 14 18.7 NNW 19 35 10 19 1010.9 1009.7 0.0
23/02:00pm 40.9 38.5 7.1 13 19.4 NNW 9 15 5 8 1011.1 1009.9 0.0
23/01:30pm 41.6 36.6 6.4 12 20.1 W 22 30 12 16 1011.7 1010.6 0.0
23/01:00pm 40.1 37.1 12.1 19 17.2 WNW 19 26 10 14 1012.2 1011.1 0.0

Other Formats:

Comma delimited format used in spreadsheet applications
http://www.bom.gov.au/fwo/IDN60801/IDN60801.95740.axf

JavaScript Object Notation format (JSON) in row-major order
http://www.bom.gov.au/fwo/IDN60801/IDN60801.95740.json